createdAt,value
2022-09-05T16:10:46.735Z,3.49
2022-09-05T16:13:04.392Z,3.67
2022-09-05T16:20:49.715Z,3.26
2022-09-05T16:23:13.666Z,3.38
2022-09-05T16:23:30.906Z,3.09
2022-09-05T16:23:50.248Z,3.16
2022-09-05T16:26:25.122Z,3.30
2022-09-05T16:28:52.448Z,6.65
2022-09-05T16:31:18.887Z,5.29
2022-09-05T16:33:45.259Z,4.12
2022-09-05T16:36:15.981Z,4.26
2022-09-05T16:38:48.908Z,3.57
2022-09-05T16:41:18.276Z,3.57
2022-09-05T16:43:47.550Z,3.84
2022-09-05T16:46:13.999Z,4.22
2022-09-05T16:48:40.539Z,4.07
2022-09-05T16:51:13.303Z,3.92
2022-09-05T16:53:53.325Z,3.54
2022-09-05T16:56:25.120Z,3.71
2022-09-05T16:58:51.538Z,3.41
2022-09-05T17:01:18.133Z,3.60
2022-09-05T17:03:44.613Z,3.42
2022-09-05T17:06:11.005Z,3.39
2022-09-05T17:08:37.386Z,3.66
2022-09-05T17:11:03.953Z,3.30
2022-09-05T17:13:38.751Z,3.53
2022-09-05T17:16:05.165Z,3.34
2022-09-05T17:18:32.031Z,3.55
2022-09-05T17:20:58.476Z,3.68
2022-09-05T17:27:44.370Z,3.27
2022-09-05T17:29:31.061Z,3.85
2022-09-05T17:29:31.435Z,3.47
2022-09-05T17:32:00.984Z,3.89
2022-09-05T17:34:28.406Z,4.13
2022-09-05T17:36:54.792Z,3.67
2022-09-05T17:39:22.047Z,3.47
2022-09-05T17:42:08.550Z,3.71
2022-09-05T17:44:34.927Z,3.82
2022-09-05T17:47:01.385Z,3.73
2022-09-05T17:49:27.764Z,4.03
2022-09-05T17:51:54.155Z,4.17
2022-09-05T17:54:20.623Z,4.24
2022-09-05T17:56:47.022Z,4.04
2022-09-05T17:59:13.428Z,4.24
2022-09-05T18:01:39.816Z,3.93
2022-09-05T18:04:16.285Z,3.97
2022-09-05T18:09:31.238Z,4.47
2022-09-05T18:11:57.628Z,4.37
2022-09-05T18:14:25.269Z,4.01
2022-09-05T18:17:37.560Z,3.94
2022-09-05T18:19:57.891Z,4.16
2022-09-05T18:25:30.572Z,4.55
2022-09-05T18:28:04.708Z,4.45
2022-09-05T18:30:31.878Z,4.87
2022-09-05T18:33:54.359Z,4.89
2022-09-05T18:35:51.054Z,5.04
2022-09-05T18:38:17.490Z,4.75
2022-09-05T18:40:43.969Z,4.99
2022-09-05T18:43:10.899Z,4.80
2022-09-05T18:45:37.444Z,4.71
2022-09-05T18:48:03.941Z,4.52
2022-09-05T18:50:33.632Z,4.86
2022-09-05T18:53:09.107Z,4.67
2022-09-05T18:56:12.660Z,4.22
2022-09-05T18:58:26.547Z,4.08
2022-09-05T19:00:53.228Z,4.47
2022-09-05T19:03:19.687Z,4.34
2022-09-05T19:05:51.438Z,4.22
2022-09-05T19:08:28.792Z,4.15
2022-09-05T19:10:58.813Z,4.40
2022-09-05T19:13:31.734Z,4.29
2022-09-05T19:16:08.001Z,4.78
2022-09-05T19:18:44.964Z,4.47
2022-09-05T19:21:12.242Z,4.09
2022-09-05T19:23:38.857Z,4.17
2022-09-05T19:26:09.633Z,4.30
2022-09-05T19:33:17.081Z,4.16
2022-09-05T19:36:53.600Z,4.00
2022-09-05T19:36:54.260Z,3.82
2022-09-05T19:37:27.506Z,3.66
2022-09-05T19:47:00.518Z,3.62
2022-09-05T19:47:37.067Z,3.49
2022-09-05T19:47:43.457Z,3.86
2022-09-05T19:48:07.855Z,4.13
2022-09-05T19:50:34.618Z,3.79
2022-09-05T19:53:01.114Z,3.68
2022-09-05T19:55:27.488Z,3.29
2022-09-05T19:58:18.919Z,3.66
2022-09-05T20:00:40.293Z,4.42
2022-09-05T20:03:06.708Z,3.57
2022-09-05T20:05:33.100Z,3.81
2022-09-05T20:07:59.492Z,3.72
2022-09-05T20:10:25.866Z,3.35
2022-09-05T20:12:52.263Z,3.57
2022-09-05T20:15:18.724Z,3.73
2022-09-05T20:17:45.111Z,3.81
2022-09-05T20:20:11.503Z,3.80
